Time;durP1;ratioP1;P1;durP2;ratioP2;P2;SDS_P1;SDS_P2;PMS_P1;PMS_P2;Temp;Humidity;BMP_temperature;BMP_pressure;BME280_temperature;BME280_humidity;BME280_pressure;Samples;Min_cycle;Max_cycle;Signal;HPM_P1;HPM_P2
2023/05/25 00:02:05;;;;;;;9.40;3.10;;;;;;;9.86;64.23;99005.84;4929842;29;20309;-62
2023/05/25 00:04:37;;;;;;;8.10;2.77;;;;;;;9.92;62.58;99014.06;4933158;29;20239;-62
2023/05/25 00:07:04;;;;;;;11.97;2.87;;;;;;;9.90;62.65;99003.78;4930674;29;20237;-62
2023/05/25 00:09:37;;;;;;;12.47;2.73;;;;;;;9.90;62.96;99002.00;4929710;29;20313;-62
2023/05/25 00:12:04;;;;;;;9.73;3.23;;;;;;;9.85;63.51;99001.56;4929883;29;20256;-62
2023/05/25 00:14:37;;;;;;;11.03;3.00;;;;;;;9.85;65.04;99004.19;4932716;29;20224;-62
2023/05/25 00:17:08;;;;;;;9.93;3.30;;;;;;;9.79;64.03;98996.91;4927907;29;20716;-63
2023/05/25 00:19:41;;;;;;;6.17;2.73;;;;;;;9.98;63.85;98990.88;4931351;29;20225;-62
2023/05/25 00:22:08;;;;;;;9.67;2.67;;;;;;;10.11;62.36;98994.97;4929215;29;20239;-63
2023/05/25 00:24:39;;;;;;;15.40;3.10;;;;;;;10.02;63.81;98991.41;4930084;29;20605;-62
2023/05/25 00:27:06;;;;;;;11.60;3.30;;;;;;;9.91;63.63;98979.38;4926831;29;20229;-62
2023/05/25 00:29:37;;;;;;;9.33;3.33;;;;;;;9.93;64.11;98984.41;4930945;29;20233;-62
2023/05/25 00:32:06;;;;;;;9.60;3.50;;;;;;;9.87;63.87;98981.41;4926282;29;20237;-62
2023/05/25 00:34:37;;;;;;;10.83;2.90;;;;;;;9.85;65.14;98982.50;4930799;29;20220;-62
2023/05/25 00:37:04;;;;;;;10.83;3.20;;;;;;;9.77;65.71;98984.97;4910564;29;20223;-62
2023/05/25 00:39:37;;;;;;;10.50;3.30;;;;;;;9.62;66.55;98974.13;4929547;29;20585;-62
2023/05/25 00:42:06;;;;;;;11.53;3.03;;;;;;;9.49;67.71;98980.44;4912502;29;20237;-62
2023/05/25 00:44:40;;;;;;;10.43;2.77;;;;;;;9.36;68.95;98977.25;4932232;29;20242;-62
2023/05/25 00:47:07;;;;;;;12.50;2.93;;;;;;;9.37;68.70;98974.50;4924283;29;20222;-62
2023/05/25 00:49:37;;;;;;;8.13;3.07;;;;;;;9.35;68.76;98975.63;4911413;29;20710;-63
2023/05/25 00:52:05;;;;;;;8.03;2.80;;;;;;;9.29;69.95;98972.59;4925952;28;20235;-63
2023/05/25 00:54:37;;;;;;;10.57;3.37;;;;;;;9.26;68.73;98977.22;4911521;29;20225;-63
2023/05/25 00:57:07;;;;;;;8.57;3.00;;;;;;;9.25;70.48;98979.03;4927925;29;20586;-62
2023/05/25 00:59:41;;;;;;;8.60;3.07;;;;;;;9.12;71.58;98981.84;4914511;29;20260;-62
2023/05/25 01:02:12;;;;;;;9.40;3.40;;;;;;;8.98;73.30;98975.22;4925292;29;20689;-62
2023/05/25 01:04:43;;;;;;;11.07;3.40;;;;;;;8.88;74.20;98976.16;4929680;29;20227;-62
2023/05/25 01:07:12;;;;;;;12.87;3.00;;;;;;;8.80;73.84;98972.44;4928984;29;20219;-62
2023/05/25 01:09:41;;;;;;;10.53;3.10;;;;;;;8.77;75.30;98983.13;4927544;29;20744;-62
2023/05/25 01:12:10;;;;;;;8.57;3.57;;;;;;;8.66;74.20;98970.19;4928262;29;20336;-62
2023/05/25 01:14:39;;;;;;;9.33;3.37;;;;;;;8.62;77.74;98977.41;4911816;29;20216;-62
2023/05/25 01:17:06;;;;;;;8.13;3.70;;;;;;;8.62;78.18;98974.81;4924927;29;20234;-62
2023/05/25 01:19:40;;;;;;;6.70;2.90;;;;;;;8.55;77.38;98976.28;4928502;29;20863;-62
2023/05/25 01:22:19;;;;;;;11.90;3.60;;;;;;;8.50;78.71;98970.63;4925171;29;20237;-62
2023/05/25 01:24:51;;;;;;;14.77;3.63;;;;;;;8.44;77.84;98976.34;4910250;29;20237;-62
2023/05/25 01:27:23;;;;;;;11.70;3.47;;;;;;;8.42;78.70;98976.47;4925349;29;20246;-62
2023/05/25 01:29:51;;;;;;;12.37;3.30;;;;;;;8.38;79.11;98981.09;4912186;29;20248;-62
2023/05/25 01:32:18;;;;;;;10.97;3.53;;;;;;;8.45;79.60;98972.78;4907936;29;20247;-62
2023/05/25 01:34:46;;;;;;;9.67;3.53;;;;;;;8.49;78.44;98979.38;4928697;29;20226;-62
2023/05/25 01:37:16;;;;;;;11.10;3.87;;;;;;;8.47;78.11;98981.28;4926276;29;20229;-62
2023/05/25 01:39:43;;;;;;;13.83;4.00;;;;;;;8.55;78.83;98979.72;4929124;29;20229;-62
2023/05/25 01:42:09;;;;;;;12.37;3.87;;;;;;;8.59;77.53;98972.47;4909087;29;20322;-62
2023/05/25 01:44:38;;;;;;;11.03;3.47;;;;;;;8.76;75.07;98976.25;4910557;29;20676;-62
2023/05/25 01:47:15;;;;;;;9.27;3.20;;;;;;;8.91;74.95;98976.72;4923910;29;20246;-62
2023/05/25 01:49:46;;;;;;;9.83;3.17;;;;;;;8.91;74.88;98986.31;4927841;29;20217;-62
2023/05/25 01:52:21;;;;;;;10.83;3.60;;;;;;;8.97;74.71;98981.41;4927172;29;20584;-62
2023/05/25 01:54:52;;;;;;;12.20;3.57;;;;;;;8.87;75.81;98977.94;4911682;29;20220;-62
2023/05/25 01:57:20;;;;;;;9.10;3.30;;;;;;;8.74;76.83;98983.38;4914104;29;20242;-62
2023/05/25 01:59:51;;;;;;;9.80;3.30;;;;;;;8.66;77.34;98976.19;4910325;29;20231;-63
2023/05/25 02:02:19;;;;;;;11.43;3.20;;;;;;;8.71;77.37;98975.81;4923943;29;20266;-63
2023/05/25 02:04:46;;;;;;;10.87;4.10;;;;;;;8.64;78.52;98970.28;4927337;29;20226;-63
2023/05/25 02:07:13;;;;;;;8.97;3.27;;;;;;;8.71;78.25;98968.81;4925494;29;20251;-63
2023/05/25 02:09:41;;;;;;;9.00;3.47;;;;;;;8.83;78.66;98966.97;4928376;29;20246;-62
2023/05/25 02:12:08;;;;;;;9.80;3.47;;;;;;;8.94;75.67;98963.44;4908932;29;20717;-62
2023/05/25 02:14:38;;;;;;;11.83;3.60;;;;;;;8.98;76.23;98966.63;4911950;29;20303;-62
2023/05/25 02:17:06;;;;;;;12.23;3.80;;;;;;;9.06;76.31;98961.53;4909652;29;20233;-62
2023/05/25 02:19:37;;;;;;;9.53;3.60;;;;;;;9.25;74.56;98954.75;4910074;29;20733;-62
2023/05/25 02:22:04;;;;;;;8.33;3.40;;;;;;;9.34;73.94;98945.31;4909787;29;20264;-63
2023/05/25 02:24:37;;;;;;;12.30;4.03;;;;;;;9.58;70.46;98948.31;4929076;29;20236;-62
2023/05/25 02:27:07;;;;;;;12.77;3.60;;;;;;;9.65;71.38;98939.97;4926513;29;20257;-62
2023/05/25 02:29:37;;;;;;;12.10;3.77;;;;;;;9.64;70.69;98939.16;4928396;29;20699;-62
2023/05/25 02:32:04;;;;;;;10.43;4.27;;;;;;;9.97;66.29;98946.69;4926392;29;20234;-62
2023/05/25 02:34:37;;;;;;;9.87;3.53;;;;;;;10.19;64.81;98948.97;4910760;29;20221;-62
2023/05/25 02:37:07;;;;;;;15.60;3.83;;;;;;;10.17;65.91;98950.06;4929110;29;20674;-62
2023/05/25 02:39:37;;;;;;;12.20;3.90;;;;;;;10.09;68.20;98944.72;4925912;29;20246;-62
2023/05/25 02:42:06;;;;;;;7.57;2.80;;;;;;;10.04;64.82;98946.00;4907901;29;20226;-62
2023/05/25 02:44:37;;;;;;;7.93;3.37;;;;;;;10.06;65.47;98948.44;4931406;29;20230;-62
2023/05/25 02:47:05;;;;;;;7.77;3.30;;;;;;;9.93;69.41;98942.69;4926461;29;20234;-62
2023/05/25 02:49:37;;;;;;;7.73;3.27;;;;;;;9.81;67.31;98942.03;4909513;29;20233;-62
2023/05/25 02:52:05;;;;;;;19.07;5.00;;;;;;;9.80;66.59;98938.59;4929423;29;20235;-63
2023/05/25 02:54:37;;;;;;;10.80;3.43;;;;;;;9.70;67.61;98932.56;4911713;29;20346;-63
2023/05/25 02:57:07;;;;;;;11.50;4.03;;;;;;;9.75;66.78;98936.41;4925201;29;20318;-62
2023/05/25 02:59:37;;;;;;;15.50;4.03;;;;;;;9.73;67.47;98943.53;4913031;29;20226;-62
2023/05/25 03:02:04;;;;;;;9.93;3.67;;;;;;;9.70;68.07;98946.44;4928613;29;20231;-62
2023/05/25 03:04:55;;;;;;;9.57;3.90;;;;;;;9.45;71.78;98942.59;4932596;29;20218;-62
2023/05/25 03:07:25;;;;;;;11.27;3.67;;;;;;;9.28;72.59;98942.28;4931504;29;20244;-62
2023/05/25 03:09:54;;;;;;;9.07;3.53;;;;;;;9.06;73.71;98942.50;4934183;29;20825;-62
2023/05/25 03:12:23;;;;;;;10.83;4.20;;;;;;;8.93;75.29;98956.59;4927925;28;20248;-63
2023/05/25 03:14:52;;;;;;;7.70;3.53;;;;;;;8.83;75.02;98953.13;4915514;29;20219;-63
2023/05/25 03:17:23;;;;;;;12.73;4.07;;;;;;;8.86;75.28;98965.88;4913536;29;20247;-63
2023/05/25 03:19:51;;;;;;;12.67;3.90;;;;;;;8.88;74.63;98963.16;4913607;29;20224;-63
2023/05/25 03:22:17;;;;;;;9.27;3.30;;;;;;;8.81;75.34;98974.09;4927592;29;20325;-62
2023/05/25 03:24:45;;;;;;;13.03;4.23;;;;;;;8.75;76.02;98968.56;4914061;29;20226;-62
2023/05/25 03:27:12;;;;;;;14.23;4.03;;;;;;;8.61;76.63;98973.16;4912110;29;20219;-62
2023/05/25 03:29:41;;;;;;;8.97;4.00;;;;;;;8.47;77.59;98971.69;4914737;29;20227;-62
2023/05/25 03:32:09;;;;;;;14.83;3.90;;;;;;;8.36;78.83;98970.00;5099798;23;20232;-63
2023/05/25 03:34:40;;;;;;;16.13;4.07;;;;;;;8.25;81.01;98970.88;4904865;29;20241;-62
2023/05/25 03:37:09;;;;;;;13.10;4.17;;;;;;;8.08;81.40;98976.66;4902670;29;20245;-62
2023/05/25 03:39:37;;;;;;;10.67;4.10;;;;;;;8.02;83.16;98978.00;4905475;29;20752;-62
2023/05/25 03:44:58;;;;;;;13.63;4.20;;;;;;;7.92;83.51;98984.88;4887117;29;20663;-62
2023/05/25 03:47:25;;;;;;;9.00;3.90;;;;;;;7.87;83.43;98980.06;4900356;29;20622;-62
2023/05/25 03:49:52;;;;;;;16.90;5.73;;;;;;;7.82;84.54;98983.03;4906476;29;20594;-62
2023/05/25 03:52:19;;;;;;;14.43;3.77;;;;;;;7.94;82.60;98980.38;4898985;29;20239;-62
2023/05/25 03:54:45;;;;;;;11.20;3.83;;;;;;;8.04;83.48;98972.66;4891602;29;20634;-62
2023/05/25 03:57:12;;;;;;;12.93;4.50;;;;;;;8.55;76.44;98979.72;4901239;29;20242;-62
2023/05/25 03:59:39;;;;;;;10.77;3.60;;;;;;;9.13;73.22;98977.47;4889743;29;20548;-62
2023/05/25 04:02:06;;;;;;;9.37;3.73;;;;;;;9.43;71.15;98984.38;4888045;29;20629;-62
2023/05/25 04:04:40;;;;;;;12.53;3.93;;;;;;;9.54;70.65;98991.25;4884405;29;20251;-63
2023/05/25 04:07:07;;;;;;;10.83;3.80;;;;;;;9.63;70.05;98981.81;4883286;29;20225;-62
2023/05/25 04:09:37;;;;;;;13.73;3.97;;;;;;;9.62;70.46;98989.75;4904245;29;20221;-62
2023/05/25 04:12:04;;;;;;;10.17;4.13;;;;;;;9.65;69.63;98987.72;4900121;29;20228;-62
2023/05/25 04:14:56;;;;;;;9.23;3.83;;;;;;;9.62;70.21;98990.59;4902150;29;20374;-62
2023/05/25 04:17:26;;;;;;;9.80;3.87;;;;;;;9.59;70.25;99004.72;4883648;29;20269;-63
2023/05/25 04:19:52;;;;;;;9.27;3.77;;;;;;;9.56;70.75;99010.19;4886455;29;20281;-63
2023/05/25 04:22:20;;;;;;;12.43;4.13;;;;;;;9.60;70.23;99008.16;4888564;29;20239;-62
2023/05/25 04:24:48;;;;;;;14.70;4.27;;;;;;;9.63;70.51;99017.47;4903082;29;20305;-62
2023/05/25 04:27:19;;;;;;;12.53;4.20;;;;;;;9.59;69.69;99003.91;4887596;29;20301;-62
2023/05/25 04:29:48;;;;;;;10.03;3.73;;;;;;;9.60;70.81;99006.34;4888873;29;20231;-62
2023/05/25 04:32:36;;;;;;;8.27;3.73;;;;;;;9.65;70.06;99011.19;4900025;29;20349;-62
2023/05/25 04:35:19;;;;;;;14.97;4.10;;;;;;;9.66;70.08;99010.22;4900345;29;20228;-62
2023/05/25 04:37:48;;;;;;;14.20;4.23;;;;;;;9.65;70.55;99015.56;4891444;29;20231;-62
2023/05/25 04:40:15;;;;;;;9.40;3.57;;;;;;;9.64;70.48;99014.75;4884275;29;20238;-62
2023/05/25 04:42:44;;;;;;;12.17;4.67;;;;;;;9.60;70.29;99014.16;4888460;29;20239;-62
2023/05/25 04:45:16;;;;;;;13.67;4.07;;;;;;;9.58;71.75;99005.66;4888287;29;20694;-62
2023/05/25 04:47:44;;;;;;;17.03;3.93;;;;;;;9.53;71.29;99015.69;4890825;29;20571;-62
2023/05/25 04:50:11;;;;;;;11.10;3.40;;;;;;;9.51;71.38;99020.22;4897587;29;20234;-62
2023/05/25 04:52:38;;;;;;;11.90;4.20;;;;;;;9.53;71.95;99015.69;4890148;29;20228;-62
2023/05/25 04:55:08;;;;;;;12.03;3.90;;;;;;;9.58;70.77;99028.31;4899783;29;20317;-62
2023/05/25 04:57:37;;;;;;;11.57;3.93;;;;;;;9.58;71.17;99031.72;4889844;29;20229;-63
2023/05/25 05:00:06;;;;;;;13.30;4.30;;;;;;;9.63;71.84;99033.09;4882123;29;20334;-63
2023/05/25 05:02:36;;;;;;;14.27;4.50;;;;;;;9.60;71.26;99026.41;4901642;29;20233;-63
2023/05/25 05:05:04;;;;;;;13.07;4.13;;;;;;;9.68;70.63;99030.91;4881568;29;20225;-62
2023/05/25 05:07:31;;;;;;;15.63;4.50;;;;;;;9.67;70.65;99030.13;4901832;29;20694;-62
2023/05/25 05:09:58;;;;;;;12.57;4.40;;;;;;;9.72;70.08;99035.75;4898168;29;20317;-62
2023/05/25 05:12:25;;;;;;;10.03;3.87;;;;;;;9.75;71.33;99029.41;4885605;29;20245;-62
2023/05/25 05:14:54;;;;;;;12.90;4.40;;;;;;;9.77;69.99;99034.50;4899025;29;20230;-62
2023/05/25 05:17:21;;;;;;;16.27;4.37;;;;;;;9.81;70.00;99035.91;4898849;29;20266;-62
2023/05/25 05:19:49;;;;;;;13.40;4.53;;;;;;;9.81;71.06;99034.09;4901366;29;20805;-62
2023/05/25 05:22:17;;;;;;;10.57;3.53;;;;;;;9.80;70.30;99040.28;4900254;29;20258;-62
2023/05/25 05:24:45;;;;;;;10.73;4.20;;;;;;;9.83;71.14;99049.63;4889597;29;20230;-62
2023/05/25 05:27:21;;;;;;;13.40;4.60;;;;;;;9.85;71.05;99048.50;4898322;29;20584;-62
2023/05/25 05:29:53;;;;;;;11.93;3.90;;;;;;;9.86;71.10;99050.16;4898919;29;20227;-62
2023/05/25 05:32:20;;;;;;;15.67;4.17;;;;;;;9.86;72.06;99051.97;4884607;29;20295;-62
2023/05/25 05:34:47;;;;;;;13.97;4.20;;;;;;;9.92;73.43;99054.03;4882853;29;20232;-62
2023/05/25 05:37:29;;;;;;;11.77;4.20;;;;;;;9.95;71.61;99052.91;4887907;29;20251;-62
2023/05/25 05:39:56;;;;;;;11.17;4.10;;;;;;;10.01;72.95;99052.38;4900187;29;20736;-62
2023/05/25 05:42:23;;;;;;;16.00;5.13;;;;;;;10.04;71.42;99058.16;4896125;29;20243;-62
2023/05/25 05:44:49;;;;;;;12.97;3.83;;;;;;;10.13;71.69;99055.66;4890920;29;20564;-62
2023/05/25 05:47:16;;;;;;;11.63;4.77;;;;;;;10.21;71.82;99053.19;4882698;29;20311;-62
2023/05/25 05:49:43;;;;;;;11.70;4.60;;;;;;;10.31;71.63;99064.44;4879984;29;20298;-62
2023/05/25 05:52:09;;;;;;;11.20;4.50;;;;;;;10.49;70.42;99058.56;4898101;29;20232;-62
2023/05/25 05:54:39;;;;;;;13.50;4.17;;;;;;;10.60;69.05;99061.00;4900554;29;20223;-62
2023/05/25 05:57:10;;;;;;;8.37;3.93;;;;;;;10.66;69.74;99069.25;4885944;29;20723;-63
2023/05/25 05:59:37;;;;;;;12.43;4.20;;;;;;;10.84;68.72;99072.78;4899301;29;20584;-63
2023/05/25 06:02:06;;;;;;;9.93;4.00;;;;;;;10.81;68.96;99082.66;4897234;29;20237;-63
2023/05/25 06:04:38;;;;;;;14.33;4.43;;;;;;;10.85;68.26;99076.22;4901955;29;20218;-63
2023/05/25 06:07:05;;;;;;;10.27;3.77;;;;;;;10.98;68.45;99076.72;4887497;29;20695;-63
2023/05/25 06:09:39;;;;;;;12.13;4.33;;;;;;;10.92;68.35;99082.50;4885086;29;20226;-63
2023/05/25 06:12:06;;;;;;;9.67;4.43;;;;;;;10.93;68.38;99087.59;4886974;29;20689;-63
2023/05/25 06:14:38;;;;;;;11.73;3.97;;;;;;;10.91;68.46;99084.31;4900322;29;20228;-63
2023/05/25 06:17:05;;;;;;;8.97;3.77;;;;;;;11.02;67.85;99091.16;4896951;29;20308;-63
2023/05/25 06:19:37;;;;;;;9.43;4.23;;;;;;;11.20;67.61;99090.41;4882095;29;20229;-63
2023/05/25 06:22:04;;;;;;;12.80;4.50;;;;;;;11.21;67.12;99099.88;4897339;29;20234;-63
2023/05/25 06:24:57;;;;;;;12.33;4.10;;;;;;;11.41;67.42;99089.34;4901892;29;20350;-63
2023/05/25 06:27:24;;;;;;;9.93;4.00;;;;;;;11.57;66.76;99097.41;4895835;29;20247;-63
2023/05/25 06:29:51;;;;;;;12.43;4.27;;;;;;;11.69;66.05;99097.19;4885326;29;20231;-63
2023/05/25 06:32:17;;;;;;;10.90;3.63;;;;;;;11.49;66.77;99097.31;4898565;29;20252;-63
2023/05/25 06:34:44;;;;;;;14.60;4.70;;;;;;;11.71;66.33;99096.06;4892500;29;20246;-63
2023/05/25 06:37:10;;;;;;;13.40;4.73;;;;;;;11.84;66.56;99098.31;4902589;29;20232;-63
2023/05/25 06:39:38;;;;;;;15.87;4.60;;;;;;;11.77;66.24;99094.66;4893799;29;20230;-63
2023/05/25 06:42:07;;;;;;;10.70;4.57;;;;;;;12.07;66.16;99100.56;4890173;29;20257;-63
2023/05/25 06:44:48;;;;;;;14.17;4.53;;;;;;;12.25;65.00;99101.38;4903688;29;20283;-63
2023/05/25 06:47:14;;;;;;;15.07;4.30;;;;;;;12.34;64.48;99106.69;4900345;29;20231;-64
2023/05/25 06:49:41;;;;;;;13.50;4.97;;;;;;;12.48;63.99;99100.09;4901865;29;20603;-64
2023/05/25 06:52:07;;;;;;;12.77;4.60;;;;;;;12.50;64.33;99098.97;4902026;29;20647;-63
2023/05/25 06:54:37;;;;;;;15.57;4.80;;;;;;;12.40;64.42;99108.72;4887215;29;20238;-63
2023/05/25 06:57:05;;;;;;;15.10;4.60;;;;;;;12.54;64.18;99105.56;4901085;29;20242;-63
2023/05/25 06:59:39;;;;;;;11.83;4.37;;;;;;;12.51;63.48;99107.66;4906308;29;20242;-63
2023/05/25 07:02:06;;;;;;;15.30;4.47;;;;;;;12.63;64.08;99105.63;4903370;29;20715;-63
2023/05/25 07:04:37;;;;;;;11.43;4.43;;;;;;;12.72;64.23;99112.53;4902955;29;20230;-63
2023/05/25 07:07:05;;;;;;;12.17;4.00;;;;;;;12.87;63.47;99101.50;4898988;29;20267;-63
2023/05/25 07:09:38;;;;;;;10.70;4.73;;;;;;;12.94;63.65;99102.53;4904233;29;20227;-64
2023/05/25 07:12:07;;;;;;;13.97;5.13;;;;;;;13.09;63.22;99101.00;4899962;29;20282;-63
2023/05/25 07:14:39;;;;;;;17.90;5.17;;;;;;;13.24;63.05;99103.88;4904354;29;20238;-63
2023/05/25 07:17:05;;;;;;;11.17;4.37;;;;;;;13.27;62.58;99107.97;4898520;29;20228;-63
2023/05/25 07:19:37;;;;;;;12.00;4.47;;;;;;;13.47;62.27;99102.53;4901643;29;20315;-63
2023/05/25 07:22:04;;;;;;;13.30;4.03;;;;;;;13.38;62.00;99099.84;4900731;29;20708;-63
2023/05/25 07:24:56;;;;;;;17.17;5.03;;;;;;;13.50;62.08;99104.84;4905086;29;20232;-63
2023/05/25 07:27:24;;;;;;;15.27;4.83;;;;;;;13.63;61.85;99099.97;4903125;29;20248;-63
2023/05/25 07:29:52;;;;;;;11.83;5.40;;;;;;;13.53;61.67;99101.91;4903560;29;20311;-63
2023/05/25 07:32:18;;;;;;;12.00;4.87;;;;;;;13.48;63.32;99106.78;4900384;29;20300;-63
2023/05/25 07:34:45;;;;;;;11.63;5.03;;;;;;;13.48;63.35;99106.78;4900732;29;20287;-63
2023/05/25 07:37:11;;;;;;;13.20;4.93;;;;;;;13.69;62.36;99112.44;4900747;29;20280;-63
2023/05/25 07:39:39;;;;;;;13.67;4.87;;;;;;;13.78;62.14;99122.97;4902596;29;20235;-63
2023/05/25 07:42:06;;;;;;;12.13;5.30;;;;;;;13.82;63.03;99113.78;4900867;29;20558;-63
2023/05/25 07:44:37;;;;;;;15.43;5.17;;;;;;;13.87;62.42;99125.44;4901508;29;20224;-63
2023/05/25 07:47:06;;;;;;;9.67;4.70;;;;;;;14.06;62.76;99126.16;4900052;29;20228;-63
2023/05/25 07:49:37;;;;;;;14.60;4.90;;;;;;;14.25;61.36;99135.53;4904984;29;20220;-63
2023/05/25 07:52:05;;;;;;;11.93;3.57;;;;;;;14.06;61.35;99134.03;4899639;29;20237;-63
2023/05/25 07:54:38;;;;;;;14.33;5.30;;;;;;;14.30;61.28;99125.38;4904233;29;20225;-63
2023/05/25 07:57:06;;;;;;;16.60;5.20;;;;;;;14.32;61.21;99131.28;4903209;29;20220;-63
2023/05/25 07:59:37;;;;;;;18.77;5.27;;;;;;;14.31;61.02;99124.38;4902899;29;20236;-63
2023/05/25 08:02:06;;;;;;;11.93;4.97;;;;;;;14.42;60.86;99143.44;4900884;29;20293;-63
2023/05/25 08:04:37;;;;;;;19.77;5.47;;;;;;;14.52;61.66;99132.75;4904279;29;20233;-63
2023/05/25 08:07:04;;;;;;;11.37;4.90;;;;;;;14.71;61.03;99136.91;4899873;29;20250;-63
2023/05/25 08:09:37;;;;;;;12.93;4.97;;;;;;;14.73;61.17;99135.75;4903456;29;20232;-63
2023/05/25 08:12:04;;;;;;;19.17;5.10;;;;;;;14.76;60.72;99135.41;4902949;29;20236;-63
2023/05/25 08:14:37;;;;;;;12.17;4.67;;;;;;;15.01;60.96;99139.81;4903528;29;20241;-63
2023/05/25 08:17:06;;;;;;;11.60;5.13;;;;;;;15.17;61.06;99134.53;4900630;29;20607;-63
2023/05/25 08:19:38;;;;;;;11.53;5.20;;;;;;;15.35;59.57;99146.66;4901560;29;20253;-63
2023/05/25 08:22:05;;;;;;;13.53;5.30;;;;;;;15.85;59.44;99146.47;4900107;29;20240;-63
2023/05/25 08:24:37;;;;;;;11.90;5.27;;;;;;;16.00;57.01;99147.38;4901159;29;20294;-63
2023/05/25 08:27:04;;;;;;;13.90;5.10;;;;;;;16.42;57.21;99168.19;4898033;29;20236;-63
2023/05/25 08:29:56;;;;;;;10.60;5.40;;;;;;;16.28;56.78;99160.06;4902038;29;20238;-63
2023/05/25 08:32:24;;;;;;;13.93;5.17;;;;;;;16.30;56.92;99157.25;4897082;29;20257;-63
2023/05/25 08:34:51;;;;;;;9.73;4.60;;;;;;;16.06;56.78;99165.13;4901471;29;20745;-63
2023/05/25 08:37:18;;;;;;;17.27;5.63;;;;;;;16.40;57.44;99170.19;4894788;29;20281;-63
2023/05/25 08:39:45;;;;;;;18.17;5.57;;;;;;;16.38;58.12;99152.75;4901845;29;20243;-63
2023/05/25 08:42:12;;;;;;;14.30;5.60;;;;;;;16.74;56.05;99166.31;4901149;29;20258;-63
2023/05/25 08:44:38;;;;;;;12.07;5.60;;;;;;;16.56;56.37;99166.59;4903096;29;20599;-63
2023/05/25 08:47:07;;;;;;;10.10;5.13;;;;;;;16.91;55.45;99159.06;4896023;29;20230;-63
2023/05/25 08:49:40;;;;;;;13.17;5.43;;;;;;;16.52;57.37;99155.63;4901612;29;20224;-63
2023/05/25 08:52:10;;;;;;;11.07;4.93;;;;;;;16.17;57.97;99161.28;4897532;29;20235;-63
2023/05/25 08:54:38;;;;;;;12.80;5.33;;;;;;;16.28;58.38;99154.78;4900282;29;20728;-63
2023/05/25 08:57:11;;;;;;;9.33;4.33;;;;;;;16.27;58.43;99161.03;4900499;29;20237;-63
2023/05/25 08:59:44;;;;;;;14.53;5.13;;;;;;;16.36;59.36;99151.28;4892072;29;20242;-63
2023/05/25 09:02:22;;;;;;;12.57;5.93;;;;;;;16.35;58.93;99141.75;4901424;29;20237;-63
2023/05/25 09:04:50;;;;;;;15.10;5.20;;;;;;;16.44;59.79;99147.75;4899920;29;20226;-63
2023/05/25 09:07:16;;;;;;;10.10;6.17;;;;;;;16.55;59.63;99146.53;4900214;29;20819;-63
2023/05/25 09:09:44;;;;;;;15.60;5.43;;;;;;;16.66;59.60;99141.66;4901600;29;20229;-63
2023/05/25 09:12:12;;;;;;;9.30;5.73;;;;;;;16.85;58.15;99155.34;4899526;29;20241;-63
2023/05/25 09:14:44;;;;;;;13.70;5.97;;;;;;;17.18;58.12;99159.50;4902671;29;20318;-63
2023/05/25 09:17:12;;;;;;;12.87;5.97;;;;;;;17.02;57.20;99158.69;4897385;29;20234;-64
2023/05/25 09:19:38;;;;;;;14.47;5.63;;;;;;;17.31;58.57;99158.88;4902179;29;20247;-64
2023/05/25 09:22:06;;;;;;;11.50;5.83;;;;;;;17.60;56.38;99162.53;4898533;29;20544;-64
2023/05/25 09:24:40;;;;;;;11.33;5.70;;;;;;;17.65;55.70;99157.50;4900643;29;20785;-64
2023/05/25 09:27:07;;;;;;;12.27;5.30;;;;;;;17.91;55.87;99164.94;4897581;29;20277;-64
2023/05/25 09:29:37;;;;;;;13.30;5.37;;;;;;;17.58;55.59;99172.44;4902344;29;20232;-63
2023/05/25 09:32:05;;;;;;;12.13;5.80;;;;;;;17.61;55.88;99170.25;4894887;29;20251;-63
2023/05/25 09:34:37;;;;;;;15.27;5.23;;;;;;;17.25;56.50;99184.19;4877932;29;20224;-63
2023/05/25 09:37:10;;;;;;;12.20;5.73;;;;;;;17.58;55.84;99173.25;4884552;29;20255;-63
2023/05/25 09:39:40;;;;;;;16.00;5.70;;;;;;;17.81;56.24;99177.59;4902695;29;20311;-63
2023/05/25 09:42:06;;;;;;;15.17;5.93;;;;;;;17.52;55.92;99180.09;4898233;29;20588;-63
2023/05/25 09:44:37;;;;;;;11.83;6.20;;;;;;;16.92;57.74;99171.25;4900458;29;20291;-63
2023/05/25 09:47:05;;;;;;;18.83;6.00;;;;;;;17.11;57.56;99178.69;4896693;29;20231;-64
2023/05/25 09:49:38;;;;;;;14.50;5.77;;;;;;;16.86;58.22;99183.34;4904225;29;20231;-63
2023/05/25 09:52:06;;;;;;;15.07;5.97;;;;;;;16.64;58.65;99169.19;4896201;29;20763;-63
2023/05/25 09:54:39;;;;;;;11.33;5.43;;;;;;;17.03;59.95;99186.69;4900873;29;20241;-63
2023/05/25 09:57:06;;;;;;;13.37;6.17;;;;;;;17.02;58.51;99176.31;4901228;29;20222;-64
2023/05/25 09:59:37;;;;;;;17.23;5.97;;;;;;;17.39;57.36;99190.44;4900895;29;20234;-64
2023/05/25 10:02:04;;;;;;;14.10;6.37;;;;;;;17.60;58.38;99179.16;4896838;29;20227;-64
2023/05/25 10:04:37;;;;;;;14.17;6.00;;;;;;;17.64;57.51;99175.16;4901816;29;20214;-64
2023/05/25 10:07:05;;;;;;;12.87;5.73;;;;;;;17.70;56.73;99181.53;4898796;29;20225;-64
2023/05/25 10:09:41;;;;;;;13.63;6.00;;;;;;;17.81;56.83;99183.72;4904291;29;20316;-64
2023/05/25 10:12:08;;;;;;;15.60;6.30;;;;;;;17.83;56.79;99179.06;4897661;29;20232;-64
2023/05/25 10:14:38;;;;;;;18.60;7.37;;;;;;;17.80;55.81;99191.81;4902210;29;20260;-64
2023/05/25 10:17:06;;;;;;;14.30;6.20;;;;;;;17.66;56.36;99188.19;4897415;29;20220;-64
2023/05/25 10:19:41;;;;;;;15.20;6.27;;;;;;;17.83;57.57;99205.47;4903733;29;20250;-64
2023/05/25 10:22:15;;;;;;;15.13;7.03;;;;;;;17.56;56.13;99188.44;4898635;29;20224;-64
2023/05/25 10:24:54;;;;;;;14.87;6.10;;;;;;;17.64;56.36;99179.63;4900402;29;20283;-64
2023/05/25 10:27:24;;;;;;;9.70;6.23;;;;;;;17.70;56.66;99197.38;4897255;29;20317;-64
2023/05/25 10:29:52;;;;;;;14.50;6.90;;;;;;;17.68;56.08;99200.19;4892263;29;20715;-64
2023/05/25 10:32:19;;;;;;;14.47;6.77;;;;;;;17.70;56.77;99200.81;4898368;29;20688;-64
2023/05/25 10:34:46;;;;;;;13.90;7.00;;;;;;;17.64;56.14;99185.72;4897851;29;20276;-64
2023/05/25 10:37:14;;;;;;;17.57;6.33;;;;;;;17.61;56.78;99201.13;4901159;29;20588;-63
2023/05/25 10:39:44;;;;;;;17.67;7.07;;;;;;;17.35;57.00;99197.94;4900144;29;20230;-64
2023/05/25 10:42:11;;;;;;;15.80;7.87;;;;;;;17.66;57.49;99198.75;4899378;29;20230;-64
2023/05/25 10:44:39;;;;;;;12.73;6.20;;;;;;;17.68;57.06;99208.09;4900359;29;20233;-64
2023/05/25 10:47:07;;;;;;;11.20;6.30;;;;;;;17.80;56.37;99213.75;4896901;29;20226;-64
2023/05/25 10:49:52;;;;;;;15.57;6.13;;;;;;;17.78;56.07;99209.66;4899393;29;20702;-64
2023/05/25 10:52:19;;;;;;;15.53;6.10;;;;;;;17.83;55.99;99202.84;4897422;29;20324;-64
2023/05/25 10:54:48;;;;;;;13.67;5.90;;;;;;;17.95;56.92;99205.00;4901001;29;20314;-64
2023/05/25 10:57:20;;;;;;;14.60;6.43;;;;;;;18.43;55.49;99201.91;4899027;29;20228;-64
2023/05/25 10:59:54;;;;;;;14.00;6.20;;;;;;;18.52;54.57;99194.66;4889696;29;20301;-64
2023/05/25 11:02:23;;;;;;;16.93;6.60;;;;;;;18.54;53.91;99208.50;4893821;29;20712;-64
2023/05/25 11:04:50;;;;;;;13.27;5.50;;;;;;;18.74;53.15;99206.03;4898932;29;20314;-64
2023/05/25 11:07:18;;;;;;;11.93;5.63;;;;;;;18.50;53.86;99200.16;4897122;29;20366;-64
2023/05/25 11:09:58;;;;;;;11.40;5.90;;;;;;;18.73;53.52;99194.66;4899210;29;20224;-64
2023/05/25 11:12:24;;;;;;;16.77;6.03;;;;;;;18.76;54.49;99203.22;4898899;29;20236;-64
2023/05/25 11:15:13;;;;;;;11.73;6.57;;;;;;;18.72;53.66;99202.75;4903582;29;20250;-64
2023/05/25 11:17:59;;;;;;;10.67;5.33;;;;;;;18.69;54.23;99196.03;4897192;29;20588;-64
2023/05/25 11:20:27;;;;;;;14.03;6.30;;;;;;;18.79;55.23;99205.50;4901179;29;20322;-64
2023/05/25 11:22:56;;;;;;;13.67;5.63;;;;;;;19.13;53.46;99204.78;4901779;29;20229;-64
2023/05/25 11:25:42;;;;;;;13.47;5.97;;;;;;;18.91;53.86;99205.78;4903118;29;20236;-64
2023/05/25 11:28:10;;;;;;;14.37;6.50;;;;;;;19.18;53.38;99196.25;4901087;29;20226;-64
2023/05/25 11:30:38;;;;;;;13.40;5.33;;;;;;;19.06;52.65;99209.19;4905054;29;20245;-64
2023/05/25 11:33:06;;;;;;;10.63;6.20;;;;;;;19.11;52.56;99213.88;4899556;29;20802;-64
2023/05/25 11:35:35;;;;;;;14.43;5.57;;;;;;;19.29;52.43;99202.84;4905108;29;20240;-64
2023/05/25 11:38:06;;;;;;;12.23;5.90;;;;;;;19.81;51.78;99200.69;4900324;29;20237;-62
2023/05/25 11:40:33;;;;;;;14.53;6.73;;;;;;;19.75;51.05;99212.06;4891894;29;20240;-62
2023/05/25 11:43:02;;;;;;;11.07;5.57;;;;;;;19.71;52.14;99205.53;4902907;29;20316;-62
2023/05/25 11:45:30;;;;;;;11.10;5.33;;;;;;;19.91;50.54;99198.53;4905664;29;20242;-62
2023/05/25 11:47:57;;;;;;;10.03;5.23;;;;;;;19.73;50.71;99208.78;4904330;29;20238;-62